Time;durP1;ratioP1;P1;durP2;ratioP2;P2;SDS_P1;SDS_P2;PMS_P1;PMS_P2;Temp;Humidity;BMP_temperature;BMP_pressure;BME280_temperature;BME280_humidity;BME280_pressure;Samples;Min_cycle;Max_cycle;Signal;HPM_P1;HPM_P2
2023/07/09 00:00:16;;;;;;;12.38;6.47;;;22.50;92.10;;;;;;5081500;28;20036;-59
2023/07/09 00:02:41;;;;;;;11.65;6.13;;;22.50;92.70;;;;;;5080300;28;20078;-59
2023/07/09 00:05:12;;;;;;;10.88;6.28;;;22.50;92.70;;;;;;5082085;28;20100;-59
2023/07/09 00:07:38;;;;;;;9.73;6.70;;;22.50;92.50;;;;;;5079866;28;20050;-59
2023/07/09 00:10:12;;;;;;;11.50;6.50;;;22.40;92.90;;;;;;5081184;28;20068;-59
2023/07/09 00:12:37;;;;;;;10.10;6.55;;;22.40;92.30;;;;;;5080718;28;20102;-59
2023/07/09 00:15:04;;;;;;;10.02;6.05;;;22.40;92.70;;;;;;5080754;28;20048;-58
2023/07/09 00:17:33;;;;;;;11.02;7.18;;;22.40;93.00;;;;;;5081466;28;20072;-59
2023/07/09 00:19:59;;;;;;;12.50;6.70;;;22.40;93.10;;;;;;5079854;28;20060;-59
2023/07/09 00:22:29;;;;;;;9.55;6.25;;;22.40;93.00;;;;;;5081188;28;20048;-59
2023/07/09 00:24:58;;;;;;;11.10;6.88;;;22.40;93.30;;;;;;5080042;28;20047;-59
2023/07/09 00:27:27;;;;;;;14.85;7.43;;;22.30;93.10;;;;;;5080632;28;20049;-59
2023/07/09 00:29:53;;;;;;;11.95;6.28;;;22.30;93.00;;;;;;5080987;28;20044;-59
2023/07/09 00:32:20;;;;;;;9.82;6.53;;;22.30;92.60;;;;;;5080002;28;20041;-58
2023/07/09 00:34:50;;;;;;;9.98;6.43;;;22.30;92.40;;;;;;5080858;28;20044;-58
2023/07/09 00:37:21;;;;;;;11.00;6.53;;;22.30;92.80;;;;;;5079393;28;20043;-59
2023/07/09 00:39:48;;;;;;;10.85;6.97;;;22.30;92.60;;;;;;5080529;28;20066;-59
2023/07/09 00:42:17;;;;;;;9.52;6.15;;;22.30;92.50;;;;;;5080350;28;20075;-59
2023/07/09 00:44:45;;;;;;;11.45;6.15;;;22.30;92.50;;;;;;5080474;28;20051;-59
2023/07/09 00:47:25;;;;;;;10.02;6.10;;;22.20;93.10;;;;;;5080548;28;20048;-59
2023/07/09 00:50:03;;;;;;;10.50;6.93;;;22.30;92.90;;;;;;5079006;28;20044;-59
2023/07/09 00:52:38;;;;;;;10.77;6.78;;;22.20;92.20;;;;;;5079280;28;20066;-59
2023/07/09 00:55:14;;;;;;;10.43;6.55;;;22.20;91.80;;;;;;5079686;28;20072;-59
2023/07/09 00:57:41;;;;;;;13.30;7.20;;;22.30;91.60;;;;;;5078959;28;20149;-59
2023/07/09 01:00:14;;;;;;;10.15;6.78;;;22.30;90.90;;;;;;5080348;28;20040;-59
2023/07/09 01:02:46;;;;;;;11.82;6.82;;;22.30;91.50;;;;;;5078081;28;20064;-59
2023/07/09 01:05:13;;;;;;;12.05;6.10;;;22.20;91.20;;;;;;5080640;28;20120;-59
2023/07/09 01:07:40;;;;;;;11.23;6.20;;;22.30;91.10;;;;;;5077341;28;20060;-59
2023/07/09 01:10:06;;;;;;;9.25;6.30;;;22.20;90.90;;;;;;5078583;28;20183;-59
2023/07/09 01:12:32;;;;;;;12.05;6.85;;;22.20;90.40;;;;;;5080030;28;20052;-58
2023/07/09 01:14:59;;;;;;;10.50;6.50;;;22.30;89.40;;;;;;5079262;28;20088;-59
2023/07/09 01:17:28;;;;;;;12.35;6.90;;;22.30;89.00;;;;;;5080239;28;20086;-59
2023/07/09 01:19:55;;;;;;;12.15;7.20;;;22.30;88.70;;;;;;5078578;28;20128;-56
2023/07/09 01:22:22;;;;;;;12.18;6.93;;;22.30;87.00;;;;;;5080287;28;20037;-59
2023/07/09 01:25:06;;;;;;;12.98;6.57;;;22.30;87.00;;;;;;5078821;28;20079;-59
2023/07/09 01:27:38;;;;;;;10.35;6.72;;;22.30;87.90;;;;;;5079365;28;20048;-59
2023/07/09 01:30:08;;;;;;;12.07;6.78;;;22.20;86.50;;;;;;5080088;28;20057;-59
2023/07/09 01:32:33;;;;;;;11.35;7.25;;;22.20;88.50;;;;;;5079026;28;20116;-59
2023/07/09 01:35:06;;;;;;;9.85;6.78;;;22.20;88.10;;;;;;5080258;28;20040;-59
2023/07/09 01:37:35;;;;;;;10.07;6.80;;;22.10;88.90;;;;;;5078135;28;20063;-58
2023/07/09 01:40:01;;;;;;;10.82;6.75;;;22.10;90.30;;;;;;5079512;28;20603;-60
2023/07/09 01:42:28;;;;;;;10.52;7.03;;;22.10;90.40;;;;;;5079238;28;20116;-59
2023/07/09 01:44:55;;;;;;;10.65;6.75;;;22.10;90.50;;;;;;5078930;28;20219;-60
2023/07/09 01:47:23;;;;;;;10.43;6.75;;;22.00;90.50;;;;;;5079917;28;20040;-59
2023/07/09 01:49:57;;;;;;;10.70;6.85;;;22.00;90.50;;;;;;5078500;28;20114;-59
2023/07/09 01:52:24;;;;;;;14.40;6.70;;;21.90;94.00;;;;;;5078476;28;20486;-59
2023/07/09 01:54:50;;;;;;;12.02;7.25;;;21.90;93.80;;;;;;5078097;28;20519;-59
2023/07/09 01:57:24;;;;;;;11.13;7.18;;;21.90;94.90;;;;;;5079271;28;20047;-59
2023/07/09 01:59:54;;;;;;;10.85;7.38;;;21.90;95.70;;;;;;5079015;28;20049;-59
2023/07/09 02:02:21;;;;;;;11.55;7.18;;;21.90;95.30;;;;;;5078308;28;20036;-59
2023/07/09 02:04:49;;;;;;;10.88;7.20;;;21.80;94.50;;;;;;5079102;28;20044;-59
2023/07/09 02:07:15;;;;;;;11.43;7.75;;;21.80;94.20;;;;;;5076014;28;20450;-59
2023/07/09 02:09:41;;;;;;;14.77;7.18;;;21.80;93.80;;;;;;5079029;28;20066;-59
2023/07/09 02:12:09;;;;;;;11.70;7.43;;;21.80;93.40;;;;;;5078295;28;20462;-59
2023/07/09 02:14:35;;;;;;;13.18;7.35;;;21.80;93.20;;;;;;5078083;28;20091;-59
2023/07/09 02:17:01;;;;;;;10.52;6.03;;;21.80;93.10;;;;;;5078907;28;20170;-59
2023/07/09 02:19:29;;;;;;;10.63;7.15;;;21.80;93.50;;;;;;5078104;28;20036;-59
2023/07/09 02:21:55;;;;;;;11.50;7.35;;;21.70;93.70;;;;;;5078775;28;20495;-59
2023/07/09 02:24:24;;;;;;;11.93;7.32;;;21.70;93.60;;;;;;5077466;28;20040;-59
2023/07/09 02:26:58;;;;;;;12.27;7.35;;;21.70;93.50;;;;;;5078739;28;20052;-58
2023/07/09 02:29:25;;;;;;;12.15;6.88;;;21.70;92.60;;;;;;5076583;28;20052;-59
2023/07/09 02:31:52;;;;;;;13.60;7.35;;;21.70;92.20;;;;;;5078195;28;20082;-59
2023/07/09 02:34:20;;;;;;;14.52;7.43;;;21.60;92.40;;;;;;5078060;28;20048;-59
2023/07/09 02:36:47;;;;;;;11.50;7.05;;;21.60;91.80;;;;;;5076191;28;20333;-59
2023/07/09 02:39:13;;;;;;;12.20;7.05;;;21.70;91.90;;;;;;5078704;28;20101;-59
2023/07/09 02:41:40;;;;;;;9.27;6.00;;;21.70;90.70;;;;;;5077008;28;20044;-59
2023/07/09 02:44:06;;;;;;;11.75;7.40;;;21.70;90.10;;;;;;5078496;28;20054;-60
2023/07/09 02:46:32;;;;;;;13.52;6.97;;;21.60;89.70;;;;;;5077813;28;20109;-59
2023/07/09 02:48:58;;;;;;;10.07;6.80;;;21.70;88.60;;;;;;5077574;28;20422;-59
2023/07/09 02:51:28;;;;;;;10.45;7.00;;;21.60;90.20;;;;;;5078105;28;20044;-59
2023/07/09 02:53:54;;;;;;;9.68;6.40;;;21.60;90.00;;;;;;5075917;28;20037;-59
2023/07/09 02:56:20;;;;;;;11.48;6.88;;;21.60;89.10;;;;;;5078384;28;20048;-58
2023/07/09 02:58:46;;;;;;;11.45;6.53;;;21.60;88.30;;;;;;5076907;28;20040;-59
2023/07/09 03:01:12;;;;;;;10.73;7.32;;;21.60;87.90;;;;;;5078155;28;20044;-59
2023/07/09 03:03:38;;;;;;;10.32;7.00;;;21.50;91.70;;;;;;5077325;28;20055;-59
2023/07/09 03:06:05;;;;;;;9.95;6.82;;;21.40;96.40;;;;;;5077752;28;20044;-59
2023/07/09 03:08:30;;;;;;;11.25;7.28;;;21.30;95.70;;;;;;5077874;28;20052;-59
2023/07/09 03:10:57;;;;;;;11.38;7.75;;;21.30;95.30;;;;;;5077071;28;20044;-59
2023/07/09 03:13:22;;;;;;;10.60;7.95;;;21.40;93.30;;;;;;5078146;28;20047;-59
2023/07/09 03:15:58;;;;;;;10.35;7.35;;;21.40;92.60;;;;;;5076853;28;20048;-59
2023/07/09 03:18:24;;;;;;;11.98;7.75;;;21.40;93.00;;;;;;5078147;28;20048;-59
2023/07/09 03:20:50;;;;;;;11.32;7.50;;;21.40;92.80;;;;;;5077381;28;20395;-59
2023/07/09 03:23:16;;;;;;;12.32;8.13;;;21.30;93.10;;;;;;5077525;28;20045;-59
2023/07/09 03:25:43;;;;;;;11.15;7.90;;;21.40;92.90;;;;;;5077231;28;20044;-59
2023/07/09 03:28:09;;;;;;;11.60;7.70;;;21.30;93.20;;;;;;5077173;28;20423;-59
2023/07/09 03:30:34;;;;;;;11.15;7.70;;;21.30;93.30;;;;;;5078121;28;20036;-59
2023/07/09 03:33:00;;;;;;;11.93;8.50;;;21.30;93.30;;;;;;5076562;28;20460;-58
2023/07/09 03:35:26;;;;;;;11.88;7.53;;;21.30;93.90;;;;;;5078082;28;20048;-59
2023/07/09 03:37:52;;;;;;;14.40;7.57;;;21.30;94.10;;;;;;5077104;28;20040;-59
2023/07/09 03:40:22;;;;;;;11.90;7.60;;;21.30;95.20;;;;;;5077414;28;20056;-59
2023/07/09 03:42:48;;;;;;;12.27;7.65;;;21.20;95.50;;;;;;5077862;28;20048;-59
2023/07/09 03:45:14;;;;;;;11.88;7.55;;;21.20;95.60;;;;;;5076728;28;20409;-59
2023/07/09 03:47:40;;;;;;;12.85;7.78;;;21.20;95.80;;;;;;5077833;28;20049;-59
2023/07/09 03:50:09;;;;;;;11.02;7.65;;;21.20;96.00;;;;;;5076371;28;20051;-59
2023/07/09 03:52:35;;;;;;;11.55;8.07;;;21.20;96.80;;;;;;5077954;28;20100;-59
2023/07/09 03:55:03;;;;;;;11.30;7.78;;;21.20;96.50;;;;;;5076850;28;20036;-58
2023/07/09 03:57:30;;;;;;;10.82;8.23;;;21.20;96.70;;;;;;5075807;28;20068;-59
2023/07/09 03:59:55;;;;;;;12.07;7.80;;;21.20;97.30;;;;;;5077736;28;20071;-59
2023/07/09 04:02:21;;;;;;;11.13;7.25;;;21.20;97.40;;;;;;5076772;28;20784;-59
2023/07/09 04:04:47;;;;;;;11.52;7.85;;;21.10;97.60;;;;;;5077841;28;20037;-59
2023/07/09 04:07:13;;;;;;;12.93;8.40;;;21.10;98.40;;;;;;5075905;28;20091;-59
2023/07/09 04:09:38;;;;;;;15.20;7.47;;;21.20;97.90;;;;;;5077684;28;20060;-59
2023/07/09 04:12:05;;;;;;;11.95;8.10;;;21.20;98.00;;;;;;5076592;28;20052;-59
2023/07/09 04:14:30;;;;;;;12.18;7.75;;;21.20;97.60;;;;;;5076951;28;20052;-59
2023/07/09 04:16:57;;;;;;;11.25;7.32;;;21.20;98.10;;;;;;5077342;28;20048;-58
2023/07/09 04:19:23;;;;;;;10.68;7.47;;;21.20;98.20;;;;;;5076497;28;20278;-59
2023/07/09 04:21:49;;;;;;;12.02;7.00;;;21.20;98.20;;;;;;5077490;28;20102;-59
2023/07/09 04:24:17;;;;;;;11.38;7.60;;;21.20;98.40;;;;;;5076081;28;20053;-60
2023/07/09 04:26:43;;;;;;;11.73;7.40;;;21.30;98.50;;;;;;5077232;28;20140;-59
2023/07/09 04:29:09;;;;;;;11.68;7.32;;;21.30;97.90;;;;;;5076499;28;20076;-59
2023/07/09 04:31:35;;;;;;;13.23;7.68;;;21.30;97.20;;;;;;5077135;28;20080;-59
2023/07/09 04:34:01;;;;;;;11.30;7.78;;;21.40;97.00;;;;;;5077095;28;20040;-59
2023/07/09 04:36:27;;;;;;;10.88;6.63;;;21.40;96.50;;;;;;5076905;28;20098;-59
2023/07/09 04:38:52;;;;;;;11.13;6.78;;;21.50;96.30;;;;;;5080679;28;20510;-59
2023/07/09 04:41:18;;;;;;;11.57;7.15;;;21.50;95.30;;;;;;5079353;28;20067;-60
2023/07/09 04:43:44;;;;;;;12.18;7.63;;;21.50;95.10;;;;;;5081029;28;20045;-59
2023/07/09 04:46:10;;;;;;;10.48;6.75;;;21.60;94.50;;;;;;5078441;28;20051;-59
2023/07/09 04:48:36;;;;;;;10.18;7.22;;;21.50;93.90;;;;;;5080384;28;20127;-59
2023/07/09 04:51:01;;;;;;;11.32;7.45;;;21.50;93.80;;;;;;5080589;28;20040;-59
2023/07/09 04:53:27;;;;;;;13.60;6.93;;;21.60;93.90;;;;;;5079561;28;20087;-59
2023/07/09 04:55:53;;;;;;;13.20;7.70;;;21.60;93.70;;;;;;5080433;28;20037;-59
2023/07/09 04:58:18;;;;;;;11.07;7.22;;;21.60;94.20;;;;;;5079139;28;20041;-59
2023/07/09 05:00:45;;;;;;;11.77;7.10;;;21.70;93.70;;;;;;5079509;28;20507;-59
2023/07/09 05:03:11;;;;;;;11.57;6.93;;;21.70;93.90;;;;;;5079301;28;20037;-59
2023/07/09 05:05:46;;;;;;;10.65;7.30;;;21.70;94.10;;;;;;5076373;28;20049;-59
2023/07/09 05:08:13;;;;;;;11.77;7.57;;;21.80;94.20;;;;;;5076260;28;20087;-59
2023/07/09 05:10:43;;;;;;;10.40;6.97;;;21.80;94.10;;;;;;5066674;28;20131;-59
2023/07/09 05:13:08;;;;;;;11.35;6.85;;;21.80;94.50;;;;;;5060002;28;20483;-58
2023/07/09 05:15:34;;;;;;;11.88;7.68;;;21.80;94.20;;;;;;5070297;28;20044;-59
2023/07/09 05:18:00;;;;;;;12.32;7.25;;;21.90;94.00;;;;;;5080117;28;20041;-59
2023/07/09 05:20:25;;;;;;;14.13;7.22;;;21.90;94.60;;;;;;5078964;28;20047;-59
2023/07/09 05:22:51;;;;;;;11.20;7.22;;;21.90;95.20;;;;;;5079826;28;20648;-59
2023/07/09 05:25:17;;;;;;;10.32;7.00;;;21.90;95.90;;;;;;5079531;28;20276;-58
2023/07/09 05:27:43;;;;;;;11.50;8.02;;;22.00;94.40;;;;;;5078941;28;20049;-59
2023/07/09 05:30:09;;;;;;;10.65;7.25;;;22.10;94.40;;;;;;5079814;28;20040;-57
2023/07/09 05:32:37;;;;;;;10.13;7.50;;;22.20;95.20;;;;;;5078558;28;20043;-59
2023/07/09 05:35:03;;;;;;;13.45;7.28;;;22.20;94.00;;;;;;5080287;28;20059;-59
2023/07/09 05:37:28;;;;;;;9.68;6.95;;;22.30;94.60;;;;;;5078548;28;20087;-59
2023/07/09 05:39:54;;;;;;;12.15;7.65;;;22.30;95.30;;;;;;5079749;28;20041;-59
2023/07/09 05:42:20;;;;;;;11.65;7.65;;;22.20;95.80;;;;;;5079386;28;20040;-58
2023/07/09 05:44:46;;;;;;;12.02;7.93;;;22.20;96.10;;;;;;5079097;28;20048;-59
2023/07/09 05:47:12;;;;;;;11.23;7.57;;;22.30;96.00;;;;;;5079266;28;20131;-59
2023/07/09 05:49:39;;;;;;;13.02;7.95;;;22.50;95.60;;;;;;5078247;28;20048;-59
2023/07/09 05:52:05;;;;;;;10.73;7.30;;;22.50;95.00;;;;;;5079753;28;20044;-59
2023/07/09 05:54:31;;;;;;;11.50;8.23;;;22.70;95.20;;;;;;5078092;28;20044;-59
2023/07/09 05:56:57;;;;;;;11.30;7.30;;;22.70;96.40;;;;;;5079305;28;20071;-59
2023/07/09 05:59:23;;;;;;;11.32;7.55;;;22.70;95.70;;;;;;5078857;28;20048;-58
2023/07/09 06:01:48;;;;;;;11.77;7.85;;;22.70;96.10;;;;;;5078992;28;20062;-59
2023/07/09 06:04:14;;;;;;;11.80;7.70;;;22.80;97.40;;;;;;5079356;28;20104;-59
2023/07/09 06:06:41;;;;;;;11.15;7.53;;;22.80;97.00;;;;;;5078035;28;20062;-59
2023/07/09 06:09:08;;;;;;;13.13;7.90;;;22.70;99.90;;;;;;5079158;28;20043;-58
2023/07/09 06:11:34;;;;;;;10.75;7.78;;;22.60;99.50;;;;;;5074411;28;20048;-59
2023/07/09 06:14:00;;;;;;;12.75;8.45;;;22.70;99.40;;;;;;5074946;28;20052;-59
2023/07/09 06:16:27;;;;;;;10.65;7.95;;;22.60;99.90;;;;;;5070428;28;20060;-58
2023/07/09 06:18:52;;;;;;;16.70;7.90;;;22.50;99.90;;;;;;5064645;28;20040;-58
2023/07/09 06:21:18;;;;;;;11.98;7.80;;;22.60;99.90;;;;;;5066285;28;20079;-58
2023/07/09 06:23:45;;;;;;;13.25;8.10;;;22.80;99.90;;;;;;5054075;28;20045;-58
2023/07/09 06:26:11;;;;;;;12.55;7.85;;;22.90;99.90;;;;;;5055054;28;20047;-58
2023/07/09 06:28:37;;;;;;;11.35;8.25;;;23.00;99.90;;;;;;5060262;28;20076;-59
2023/07/09 06:31:03;;;;;;;12.85;8.27;;;23.10;99.90;;;;;;5066138;28;20044;-58
2023/07/09 06:33:29;;;;;;;10.57;7.28;;;23.30;99.90;;;;;;5063389;28;20049;-58
2023/07/09 06:35:58;;;;;;;13.57;7.45;;;23.50;99.60;;;;;;5065851;28;20040;-59
2023/07/09 06:38:24;;;;;;;12.15;7.40;;;23.70;98.70;;;;;;5054386;28;20051;-58
2023/07/09 06:40:50;;;;;;;11.48;8.15;;;23.80;99.30;;;;;;5053694;28;20032;-58
2023/07/09 06:43:17;;;;;;;12.27;7.72;;;23.80;96.70;;;;;;5054666;28;20053;-59
2023/07/09 06:46:01;;;;;;;20.83;9.30;;;24.00;96.60;;;;;;5053129;28;20045;-58
2023/07/09 06:48:28;;;;;;;11.40;7.60;;;24.10;97.80;;;;;;5053686;28;20122;-58
2023/07/09 06:50:56;;;;;;;11.43;7.55;;;24.10;97.70;;;;;;5054318;28;20041;-59
2023/07/09 06:53:22;;;;;;;12.38;7.65;;;24.00;98.90;;;;;;5057612;28;20055;-58
2023/07/09 06:55:52;;;;;;;11.70;7.70;;;23.90;99.90;;;;;;5074547;28;20143;-60
2023/07/09 06:58:18;;;;;;;12.52;8.30;;;24.00;99.90;;;;;;5072697;28;20048;-58
2023/07/09 07:00:45;;;;;;;11.88;7.57;;;24.10;99.90;;;;;;5073871;28;20087;-58
2023/07/09 07:03:11;;;;;;;11.70;7.68;;;24.30;99.90;;;;;;5073419;28;20115;-58
2023/07/09 07:05:37;;;;;;;12.05;7.50;;;24.40;99.90;;;;;;5071815;28;20593;-59
2023/07/09 07:08:03;;;;;;;13.73;8.07;;;24.60;99.00;;;;;;5069255;28;20052;-59
2023/07/09 07:10:29;;;;;;;12.07;7.90;;;24.70;99.90;;;;;;5057346;28;20630;-59
2023/07/09 07:12:55;;;;;;;12.95;8.15;;;24.80;99.40;;;;;;5052810;28;20060;-59
2023/07/09 07:15:22;;;;;;;10.98;7.55;;;24.90;98.20;;;;;;5052574;28;20079;-59
2023/07/09 07:17:48;;;;;;;14.45;7.75;;;25.10;93.50;;;;;;5054169;28;20159;-59
2023/07/09 07:20:15;;;;;;;11.55;7.07;;;25.20;93.90;;;;;;5052841;28;20425;-59
2023/07/09 07:22:41;;;;;;;13.35;7.53;;;25.30;92.50;;;;;;5053705;28;20037;-59
2023/07/09 07:25:08;;;;;;;11.02;7.35;;;25.60;92.80;;;;;;5059985;28;20115;-58
2023/07/09 07:27:34;;;;;;;11.43;7.65;;;25.80;91.50;;;;;;5057022;28;20523;-59
2023/07/09 07:30:01;;;;;;;13.02;7.25;;;25.80;91.60;;;;;;5058184;28;20040;-58
2023/07/09 07:32:26;;;;;;;12.70;7.60;;;25.70;91.60;;;;;;5060544;28;20037;-59
2023/07/09 07:34:54;;;;;;;12.85;7.43;;;25.50;90.00;;;;;;5070249;28;20101;-59
2023/07/09 07:37:20;;;;;;;12.77;7.20;;;25.50;91.50;;;;;;5056244;28;20041;-58
2023/07/09 07:39:47;;;;;;;13.45;7.68;;;25.50;95.10;;;;;;5057560;28;20029;-59
2023/07/09 07:42:12;;;;;;;12.27;8.02;;;25.50;96.80;;;;;;5063665;28;20037;-59
2023/07/09 07:44:38;;;;;;;23.92;8.50;;;25.40;97.30;;;;;;5061277;28;20041;-59
2023/07/09 07:47:05;;;;;;;12.75;7.68;;;25.50;96.80;;;;;;5065784;28;20051;-58
2023/07/09 07:49:30;;;;;;;12.75;7.72;;;25.60;95.60;;;;;;5063049;28;20079;-59
2023/07/09 07:51:56;;;;;;;34.17;9.38;;;25.80;96.10;;;;;;5062541;28;20481;-58
2023/07/09 07:54:22;;;;;;;13.95;8.77;;;25.90;93.70;;;;;;5062925;28;20052;-59
2023/07/09 07:56:48;;;;;;;15.48;8.90;;;26.00;92.10;;;;;;5062212;28;20037;-59
2023/07/09 07:59:14;;;;;;;16.05;9.48;;;26.00;91.90;;;;;;5070500;28;20063;-59
2023/07/09 08:01:40;;;;;;;13.38;9.88;;;26.20;92.10;;;;;;5073408;28;20060;-59
2023/07/09 08:04:06;;;;;;;15.18;9.63;;;26.20;85.50;;;;;;5073341;28;20664;-59
2023/07/09 08:06:32;;;;;;;12.90;8.98;;;26.20;91.60;;;;;;5071819;28;20102;-59
2023/07/09 08:08:58;;;;;;;16.10;9.45;;;26.40;91.30;;;;;;5073424;28;20044;-59
2023/07/09 08:11:24;;;;;;;13.30;9.55;;;26.40;90.80;;;;;;5074394;28;20592;-59
2023/07/09 08:13:50;;;;;;;16.83;11.63;;;26.50;90.90;;;;;;5076863;28;20060;-59
2023/07/09 08:16:16;;;;;;;18.65;12.00;;;26.40;86.90;;;;;;5076295;28;20524;-59
2023/07/09 08:18:42;;;;;;;17.30;11.77;;;26.10;88.30;;;;;;5076421;28;20690;-59
2023/07/09 08:21:09;;;;;;;17.80;11.27;;;26.20;88.70;;;;;;5077084;28;20499;-59
2023/07/09 08:23:35;;;;;;;15.32;11.88;;;26.20;88.70;;;;;;5067358;28;20067;-59
2023/07/09 08:26:02;;;;;;;17.45;12.00;;;26.30;90.40;;;;;;5060169;28;20072;-59
2023/07/09 08:28:29;;;;;;;16.10;11.07;;;26.40;88.90;;;;;;5055078;28;20106;-58
2023/07/09 08:30:55;;;;;;;16.95;12.60;;;26.50;92.20;;;;;;5056652;28;20082;-59
2023/07/09 08:33:21;;;;;;;15.07;11.27;;;26.60;90.70;;;;;;5058061;28;20269;-59
2023/07/09 08:35:52;;;;;;;19.15;11.68;;;26.60;90.40;;;;;;5069640;28;20431;-59
2023/07/09 08:38:18;;;;;;;17.23;11.82;;;26.70;94.80;;;;;;5066183;28;20101;-59
2023/07/09 08:41:06;;;;;;;16.70;12.20;;;26.60;92.80;;;;;;5075743;28;20049;-59
2023/07/09 08:43:46;;;;;;;19.58;13.13;;;26.70;90.60;;;;;;5079351;28;20492;-59
2023/07/09 08:46:29;;;;;;;17.45;12.77;;;26.70;91.60;;;;;;5079445;28;20036;-59
2023/07/09 08:48:58;;;;;;;15.00;11.75;;;26.60;90.50;;;;;;5074117;28;20041;-59
2023/07/09 08:51:38;;;;;;;17.77;13.80;;;26.70;89.10;;;;;;5065088;28;20053;-59
2023/07/09 08:54:10;;;;;;;15.98;12.52;;;26.70;90.60;;;;;;5065873;28;20108;-59
2023/07/09 08:56:35;;;;;;;;;;;26.70;91.00;;;;;;5065167;28;20389;-58
2023/07/09 08:59:03;;;;;;;18.70;13.70;;;26.60;91.60;;;;;;5060212;28;19924;-58
2023/07/09 09:01:39;;;;;;;19.92;14.80;;;26.60;89.90;;;;;;5062666;28;20385;-59
2023/07/09 09:04:19;;;;;;;16.85;13.20;;;26.60;90.10;;;;;;5061942;28;20033;-59
2023/07/09 09:06:52;;;;;;;16.25;12.45;;;26.60;94.30;;;;;;5060467;28;20052;-59
2023/07/09 09:09:39;;;;;;;18.58;12.98;;;26.50;92.80;;;;;;5068492;28;20059;-59
2023/07/09 09:12:29;;;;;;;17.10;13.00;;;26.50;97.00;;;;;;5068112;28;20044;-59
2023/07/09 09:15:18;;;;;;;16.58;13.23;;;26.60;90.40;;;;;;5071900;28;20398;-59
2023/07/09 09:17:44;;;;;;;17.33;13.70;;;26.60;88.70;;;;;;5064193;28;20041;-59
2023/07/09 09:20:17;;;;;;;17.35;12.02;;;26.40;89.30;;;;;;5065703;28;20040;-59
2023/07/09 09:23:07;;;;;;;18.60;13.05;;;26.80;93.10;;;;;;5063119;28;20045;-59
2023/07/09 09:25:37;;;;;;;17.05;12.50;;;26.80;92.80;;;;;;5067107;28;20055;-59
2023/07/09 09:28:03;;;;;;;16.85;12.32;;;27.00;90.70;;;;;;5062083;28;20075;-59
2023/07/09 09:30:30;;;;;;;19.13;12.75;;;26.80;90.70;;;;;;5064545;28;20041;-59
2023/07/09 09:33:02;;;;;;;15.43;12.05;;;27.00;90.00;;;;;;5069412;28;20140;-59
2023/07/09 09:35:47;;;;;;;18.75;12.25;;;26.70;75.00;;;;;;5062555;28;20131;-56
2023/07/09 09:38:19;;;;;;;17.67;13.50;;;26.80;83.20;;;;;;5066483;28;20105;-59
2023/07/09 09:40:45;;;;;;;;;;;26.90;85.80;;;;;;5057940;28;20052;-58
2023/07/09 09:43:23;;;;;;;18.13;13.88;;;27.00;96.70;;;;;;5058248;28;20023;-59
2023/07/09 09:45:50;;;;;;;16.70;13.10;;;27.00;96.20;;;;;;5058895;28;20029;-58
2023/07/09 09:48:27;;;;;;;15.68;11.80;;;27.00;90.80;;;;;;5067486;28;20446;-59
2023/07/09 09:50:53;;;;;;;18.48;12.98;;;27.30;88.90;;;;;;5062469;28;20051;-58
2023/07/09 09:53:24;;;;;;;18.67;14.18;;;27.40;86.30;;;;;;5067964;28;20044;-58
2023/07/09 09:55:52;;;;;;;15.10;11.80;;;27.10;84.90;;;;;;5079431;28;20124;-59
2023/07/09 09:58:18;;;;;;;13.93;11.02;;;27.60;83.90;;;;;;5077915;28;20036;-59
2023/07/09 10:00:52;;;;;;;14.43;11.05;;;27.70;77.00;;;;;;5079449;28;20041;-58
2023/07/09 10:03:19;;;;;;;14.02;11.85;;;27.70;79.80;;;;;;5078238;28;20052;-58
2023/07/09 10:05:52;;;;;;;14.27;10.07;;;27.50;81.70;;;;;;5073044;28;20128;-58
2023/07/09 10:08:38;;;;;;;15.52;11.13;;;27.70;74.80;;;;;;5064233;28;20056;-59
2023/07/09 10:11:29;;;;;;;15.25;11.52;;;28.00;85.60;;;;;;5063154;28;20052;-60
2023/07/09 10:14:03;;;;;;;18.05;12.15;;;27.70;71.50;;;;;;5067364;28;20056;-59
2023/07/09 10:16:38;;;;;;;15.77;10.32;;;27.60;76.30;;;;;;5061562;28;20131;-59
2023/07/09 10:19:24;;;;;;;12.95;7.85;;;28.00;76.30;;;;;;5065289;28;20071;-59
2023/07/09 10:21:57;;;;;;;13.25;8.48;;;28.20;65.20;;;;;;5063628;28;20103;-59
2023/07/09 10:25:04;;;;;;;11.40;7.28;;;28.00;67.20;;;;;;5067060;28;20062;-59
2023/07/09 10:27:51;;;;;;;13.48;8.20;;;28.40;60.40;;;;;;5056612;28;20101;-59
2023/07/09 10:30:51;;;;;;;11.10;6.43;;;28.20;56.30;;;;;;5057636;28;20037;-59
2023/07/09 10:33:55;;;;;;;11.18;5.95;;;28.10;38.80;;;;;;5063854;28;20045;-60
2023/07/09 10:36:36;;;;;;;10.60;5.82;;;28.20;34.40;;;;;;5059287;28;20064;-59
2023/07/09 10:39:17;;;;;;;12.02;6.43;;;27.50;34.70;;;;;;5062972;28;20109;-59
2023/07/09 10:41:44;;;;;;;10.15;6.28;;;27.40;44.10;;;;;;5064054;28;20045;-59
2023/07/09 10:44:19;;;;;;;10.80;6.50;;;27.30;43.20;;;;;;5058382;28;20040;-58
2023/07/09 10:46:50;;;;;;;9.70;5.38;;;27.20;38.00;;;;;;5056727;28;20083;-59
2023/07/09 10:49:17;;;;;;;8.98;5.20;;;27.30;34.30;;;;;;5057098;28;20055;-59
2023/07/09 10:51:59;;;;;;;9.50;5.75;;;27.70;39.10;;;;;;5058343;28;20103;-59
2023/07/09 10:54:42;;;;;;;11.68;5.47;;;27.70;36.90;;;;;;5062494;28;20041;-58
2023/07/09 10:57:41;;;;;;;9.95;5.63;;;28.20;33.10;;;;;;5066421;28;20048;-59
2023/07/09 11:00:16;;;;;;;9.45;5.63;;;28.40;33.10;;;;;;5066082;28;20048;-59
2023/07/09 11:02:43;;;;;;;9.10;5.05;;;28.50;31.60;;;;;;5064097;28;20056;-59
2023/07/09 11:05:09;;;;;;;9.52;5.60;;;28.70;32.30;;;;;;5058466;28;20055;-59
2023/07/09 11:08:00;;;;;;;9.20;4.90;;;28.80;30.00;;;;;;5059269;28;20124;-59
2023/07/09 11:10:37;;;;;;;9.95;5.72;;;28.80;26.40;;;;;;5060040;28;20064;-58
2023/07/09 11:13:23;;;;;;;10.38;5.90;;;29.00;27.40;;;;;;5057501;28;20231;-59
2023/07/09 11:15:53;;;;;;;9.98;5.45;;;29.00;23.50;;;;;;5057121;28;20045;-58
2023/07/09 11:18:29;;;;;;;8.80;5.68;;;29.00;25.40;;;;;;5058107;28;20041;-59
2023/07/09 11:21:14;;;;;;;12.43;6.57;;;29.10;26.20;;;;;;5057896;28;20033;-58
2023/07/09 11:23:55;;;;;;;9.32;5.47;;;29.10;25.90;;;;;;5056678;28;20071;-59
2023/07/09 11:26:30;;;;;;;9.80;6.28;;;29.20;26.10;;;;;;5058272;28;20056;-59
2023/07/09 11:29:17;;;;;;;10.25;6.18;;;29.20;27.90;;;;;;5056803;28;20059;-59
2023/07/09 11:31:46;;;;;;;10.13;5.93;;;29.40;28.10;;;;;;5057289;28;20274;-59
2023/07/09 11:34:14;;;;;;;11.27;6.95;;;29.30;30.00;;;;;;5057935;28;20111;-59
2023/07/09 11:36:51;;;;;;;10.73;6.72;;;29.30;30.70;;;;;;5056418;28;20127;-59
2023/07/09 11:39:37;;;;;;;12.60;7.18;;;29.30;32.70;;;;;;5058070;28;20052;-59
2023/07/09 11:42:03;;;;;;;10.45;6.25;;;29.50;31.70;;;;;;5048630;28;20057;-59
2023/07/09 11:44:33;;;;;;;10.88;6.65;;;29.60;31.90;;;;;;5057251;28;20102;-59
2023/07/09 11:47:12;;;;;;;11.88;7.22;;;29.60;34.30;;;;;;5061075;28;20562;-59
2023/07/09 11:50:01;;;;;;;11.25;6.88;;;29.60;32.80;;;;;;5060326;28;20411;-59
2023/07/09 11:52:42;;;;;;;11.02;6.15;;;29.30;34.80;;;;;;5062145;28;20590;-59
2023/07/09 11:55:22;;;;;;;9.23;6.00;;;29.50;30.40;;;;;;5078693;28;20060;-59
2023/07/09 11:58:00;;;;;;;11.80;6.07;;;29.60;30.70;;;;;;5080937;28;20079;-59
2023/07/09 12:00:30;;;;;;;10.55;5.93;;;29.70;30.60;;;;;;5081801;28;20033;-58
2023/07/09 12:02:56;;;;;;;9.32;5.95;;;29.80;29.50;;;;;;5080705;28;20455;-59
2023/07/09 12:05:28;;;;;;;11.43;6.10;;;29.70;29.50;;;;;;5081558;28;20052;-60
2023/07/09 12:07:55;;;;;;;10.05;5.28;;;30.00;28.70;;;;;;5081049;28;20040;-61
2023/07/09 12:10:23;;;;;;;8.80;5.38;;;30.00;29.10;;;;;;5080902;28;20036;-59
2023/07/09 12:12:57;;;;;;;9.75;5.05;;;30.00;26.70;;;;;;5081718;28;20059;-59
2023/07/09 12:15:28;;;;;;;12.55;5.50;;;30.10;25.40;;;;;;5080091;28;20064;-59
2023/07/09 12:18:02;;;;;;;;;;;30.20;25.60;;;;;;5082139;28;20048;-58
2023/07/09 12:20:34;;;;;;;9.10;4.95;;;30.20;23.60;;;;;;5080720;28;19931;-59
2023/07/09 12:23:00;;;;;;;8.82;5.18;;;30.20;23.20;;;;;;5081173;28;20059;-59
2023/07/09 12:25:30;;;;;;;8.55;4.72;;;30.20;24.50;;;;;;5081254;28;20047;-58
2023/07/09 12:27:58;;;;;;;10.32;5.43;;;30.20;24.20;;;;;;5080135;28;20068;-59
2023/07/09 12:30:23;;;;;;;9.35;5.30;;;30.20;23.90;;;;;;5081335;28;20079;-59
2023/07/09 12:32:52;;;;;;;8.45;5.10;;;30.20;23.60;;;;;;5079837;28;20048;-59
2023/07/09 12:35:19;;;;;;;10.23;5.57;;;30.20;23.90;;;;;;5081087;28;20044;-59
2023/07/09 12:37:47;;;;;;;10.63;5.00;;;30.20;23.70;;;;;;5080367;28;20115;-58
2023/07/09 12:40:16;;;;;;;10.60;5.22;;;30.20;23.30;;;;;;5079913;28;20040;-59
2023/07/09 12:42:42;;;;;;;9.57;5.47;;;30.10;23.10;;;;;;5080407;28;20515;-59
2023/07/09 12:45:18;;;;;;;9.07;5.10;;;30.10;23.60;;;;;;5079704;28;20557;-59
2023/07/09 12:47:46;;;;;;;8.85;5.30;;;30.10;22.30;;;;;;5066810;28;20036;-59
2023/07/09 12:50:33;;;;;;;11.20;5.60;;;30.10;22.40;;;;;;5062037;28;20419;-59